| time (UTC) | temp F | wind direction | speed MPH | gust MPH | rain 1hr in | rain 24hr in | rain mn in | humidity % | barometer mb |
| 20260504212004 | 70 | 254 | 2.0 | 13.0 | 0.00 | 0.00 | 0.00 | 36 | 1005.4 |
| 20260504211505 | 70 | 259 | 3.0 | 8.0 | 0.00 | 0.00 | 0.00 | 38 | 1005.4 |
| 20260504211004 | 70 | 252 | 2.0 | 8.0 | 0.00 | 0.00 | 0.00 | 36 | 1005.3 |
| 20260504210503 | 71 | 252 | 2.0 | 8.0 | 0.00 | 0.00 | 0.00 | 36 | 1005.3 |
| 20260504210003 | 71 | 234 | 2.0 | 9.0 | 0.00 | 0.00 | 0.00 | 36 | 1005.3 |
| 20260504205504 | 71 | 257 | 3.0 | 10.0 | 0.00 | 0.00 | 0.00 | 35 | 1005.4 |
| 20260504205002 | 71 | 177 | 2.0 | 10.0 | 0.00 | 0.00 | 0.00 | 36 | 1005.2 |
| 20260504204505 | 70 | 219 | 2.0 | 10.0 | 0.00 | 0.00 | 0.00 | 38 | 1005.3 |
| 20260504204002 | 70 | 58 | 2.0 | 14.0 | 0.00 | 0.00 | 0.00 | 37 | 1005.1 |
| 20260504203503 | 70 | 240 | 3.0 | 14.0 | 0.00 | 0.00 | 0.00 | 36 | 1005.2 |
| 20260504203003 | 70 | 329 | 3.0 | 14.0 | 0.00 | 0.00 | 0.00 | 39 | 1005.2 |
| 20260504202504 | 70 | 18 | 1.0 | 14.0 | 0.00 | 0.00 | 0.00 | 37 | 1005.2 |
| 20260504202004 | 70 | 109 | 3.0 | 9.0 | 0.00 | 0.00 | 0.00 | 36 | 1005.2 |
| 20260504201503 | 71 | 312 | 1.0 | 9.0 | 0.00 | 0.00 | 0.00 | 35 | 1005.4 |
| 20260504201007 | 71 | 283 | 3.0 | 11.0 | 0.00 | 0.00 | 0.00 | 36 | 1005.4 |
| 20260504200503 | 71 | 220 | 5.0 | 11.0 | 0.00 | 0.00 | 0.00 | 36 | 1005.4 |
| 20260504200013 | 70 | 229 | 2.0 | 5.0 | 0.00 | 0.00 | 0.00 | 40 | 1005.5 |
| 20260504195504 | 69 | 273 | 2.0 | 8.0 | 0.00 | 0.00 | 0.00 | 38 | 1005.4 |
| 20260504195007 | 69 | 263 | 1.0 | 10.0 | 0.00 | 0.00 | 0.00 | 38 | 1005.4 |
| 20260504194511 | 69 | 246 | 3.0 | 12.0 | 0.00 | 0.00 | 0.00 | 38 | 1005.4 |
| 20260504194006 | 68 | 61 | 3.0 | 12.0 | 0.00 | 0.00 | 0.00 | 38 | 1005.5 |
| 20260504193503 | 68 | 146 | 3.0 | 8.0 | 0.00 | 0.00 | 0.00 | 38 | 1005.5 |
| 20260504193010 | 69 | 268 | 3.0 | 10.0 | 0.00 | 0.00 | 0.00 | 38 | 1005.6 |
| 20260504192503 | 69 | 257 | 3.0 | 11.0 | 0.00 | 0.00 | 0.00 | 37 | 1005.6 |
| 20260504192005 | 69 | 126 | 3.0 | 13.0 | 0.00 | 0.00 | 0.00 | 40 | 1005.7 |
| 20260504191507 | 68 | 261 | 4.0 | 13.0 | 0.00 | 0.00 | 0.00 | 38 | 1005.6 |
| 20260504191004 | 67 | 315 | 2.0 | 11.0 | 0.00 | 0.00 | 0.00 | 38 | 1005.8 |
| 20260504190504 | 67 | 135 | 3.0 | 8.0 | 0.00 | 0.00 | 0.00 | 41 | 1005.8 |
| 20260504190008 | 67 | 176 | 3.0 | 8.0 | 0.00 | 0.00 | 0.00 | 39 | 1005.7 |
| 20260504185503 | 68 | 267 | 3.0 | 12.0 | 0.00 | 0.00 | 0.00 | 39 | 1005.7 |
| 20260504185005 | 68 | 216 | 4.0 | 12.0 | 0.00 | 0.00 | 0.00 | 38 | 1005.7 |
| 20260504184511 | 68 | 269 | 2.0 | 16.0 | 0.00 | 0.00 | 0.00 | 39 | 1005.8 |
| 20260504184004 | 68 | 240 | 3.0 | 16.0 | 0.00 | 0.00 | 0.00 | 39 | 1005.7 |
| 20260504183506 | 69 | 360 | 5.0 | 16.0 | 0.00 | 0.00 | 0.00 | 38 | 1005.8 |
| 20260504183015 | 68 | 233 | 4.0 | 10.0 | 0.00 | 0.00 | 0.00 | 39 | 1005.9 |
| 20260504182502 | 67 | 84 | 2.0 | 10.0 | 0.00 | 0.00 | 0.00 | 41 | 1005.7 |
| 20260504182005 | 67 | 267 | 2.0 | 10.0 | 0.00 | 0.00 | 0.00 | 40 | 1005.8 |
| 20260504181504 | 67 | 257 | 3.0 | 14.0 | 0.00 | 0.00 | 0.00 | 40 | 1005.8 |
| 20260504181004 | 67 | 296 | 4.0 | 14.0 | 0.00 | 0.00 | 0.00 | 40 | 1005.9 |
| 20260504180507 | 67 | 204 | 5.0 | 14.0 | 0.00 | 0.00 | 0.00 | 39 | 1005.9 |
| 20260504180004 | 68 | 222 | 4.0 | 11.0 | 0.00 | 0.00 | 0.00 | 37 | 1006.0 |
| 20260504175503 | 68 | 210 | 2.0 | 9.0 | 0.00 | 0.00 | 0.00 | 37 | 1005.9 |
| 20260504175005 | 69 | 169 | 4.0 | 14.0 | 0.00 | 0.00 | 0.00 | 36 | 1005.9 |
| 20260504174503 | 69 | 292 | 2.0 | 14.0 | 0.00 | 0.00 | 0.00 | 39 | 1005.7 |
| 20260504174005 | 69 | 41 | 3.0 | 16.0 | 0.00 | 0.00 | 0.00 | 40 | 1005.8 |
| 20260504173503 | 68 | 340 | 2.0 | 16.0 | 0.00 | 0.00 | 0.00 | 39 | 1005.9 |
| 20260504173005 | 67 | 273 | 2.0 | 11.0 | 0.00 | 0.00 | 0.00 | 40 | 1006.0 |
| 20260504172503 | 67 | 244 | 3.0 | 11.0 | 0.00 | 0.00 | 0.00 | 41 | 1006.0 |
| 20260504172006 | 67 | 314 | 4.0 | 20.0 | 0.00 | 0.00 | 0.00 | 38 | 1006.1 |
| 20260504171534 | 66 | 245 | 3.0 | 20.0 | 0.00 | 0.00 | 0.00 | 39 | 1006.0 |
| 20260504171005 | 66 | 258 | 4.0 | 9.0 | 0.00 | 0.00 | 0.00 | 40 | 1006.0 |
| 20260504170506 | 65 | 232 | 1.0 | 13.0 | 0.00 | 0.00 | 0.00 | 41 | 1006.1 |
| 20260504151007 | 63 | 256 | 3.0 | 10.0 | 0.00 | 0.00 | 0.00 | 43 | 1007.0 |
| 20260504150512 | 63 | 249 | 3.0 | 11.0 | 0.00 | 0.00 | 0.00 | 44 | 1007.1 |
| 20260504141006 | 60 | 230 | 5.0 | 11.0 | 0.00 | 0.00 | 0.00 | 49 | 1007.6 |
| 20260504140504 | 60 | 234 | 3.0 | 13.0 | 0.00 | 0.00 | 0.00 | 50 | 1007.8 |
| 20260504130503 | 54 | 146 | 1.0 | 11.0 | 0.00 | 0.00 | 0.00 | 60 | 1008.4 |
| 20260504110504 | 35 | 151 | 0.0 | 1.0 | 0.00 | 0.00 | 0.00 | 91 | 1009.4 |
| 20260504100501 | 32 | 151 | 1.0 | 2.0 | 0.00 | 0.00 | 0.00 | 92 | 1009.1 |
| 20260504082006 | 33 | 151 | 0.0 | 1.0 | 0.00 | 0.00 | 0.00 | 91 | 1009.0 |
| 20260504081516 | 33 | 151 | 0.0 | 2.0 | 0.00 | 0.00 | 0.00 | 91 | 1009.1 |
| 20260504081007 | 33 | 151 | 0.0 | 2.0 | 0.00 | 0.00 | 0.00 | 92 | 1009.1 |
| 20260504080507 | 33 | 151 | 0.0 | 1.0 | 0.00 | 0.00 | 0.00 | 92 | 1009.2 |
| 20260504050506 | 28 | 151 | 0.0 | 2.0 | 0.00 | 0.01 | 0.00 | 91 | 1009.1 |
| 20260504050016 | 28 | 151 | 0.0 | 0.0 | 0.00 | 0.01 | 0.00 | 91 | 1009.2 |
| 20260504045503 | 28 | 151 | 0.0 | 1.0 | 0.00 | 0.01 | 0.00 | 91 | 1009.1 |
| 20260504045006 | 28 | 151 | 0.0 | 2.0 | 0.00 | 0.01 | 0.00 | 91 | 1009.2 |
| 20260504044524 | 28 | 151 | 0.0 | 2.0 | 0.00 | 0.01 | 0.00 | 91 | 1009.2 |
| 20260504044006 | 28 | 151 | 0.0 | 1.0 | 0.00 | 0.01 | 0.00 | 91 | 1009.3 |
| 20260504043506 | 29 | 151 | 0.0 | 2.0 | 0.00 | 0.01 | 0.00 | 91 | 1009.2 |
| 20260504043021 | 29 | 151 | 0.0 | 2.0 | 0.00 | 0.01 | 0.00 | 91 | 1009.2 |
| 20260504042509 | 29 | 151 | 1.0 | 2.0 | 0.00 | 0.01 | 0.00 | 91 | 1009.2 |
| 20260504042003 | 29 | 151 | 0.0 | 1.0 | 0.00 | 0.01 | 0.00 | 90 | 1009.2 |
| 20260504041505 | 29 | 151 | 0.0 | 2.0 | 0.00 | 0.01 | 0.00 | 90 | 1009.1 |
| 20260504041003 | 29 | 151 | 0.0 | 2.0 | 0.00 | 0.01 | 0.00 | 91 | 1009.0 |
| 20260504040504 | 29 | 151 | 0.0 | 1.0 | 0.00 | 0.01 | 0.00 | 91 | 1009.0 |
| 20260504040009 | 30 | 151 | 0.0 | 1.0 | 0.00 | 0.01 | 0.00 | 90 | 1008.9 |
| 20260504035504 | 30 | 151 | 0.0 | 1.0 | 0.00 | 0.01 | 0.01 | 90 | 1009.0 |
| 20260504035004 | 30 | 151 | 0.0 | 0.0 | 0.00 | 0.01 | 0.01 | 90 | 1008.9 |
| 20260504034512 | 30 | 151 | 0.0 | 1.0 | 0.00 | 0.01 | 0.01 | 90 | 1008.9 |
| 20260504034007 | 30 | 151 | 0.0 | 2.0 | 0.00 | 0.01 | 0.01 | 90 | 1008.9 |
| 20260504033503 | 30 | 151 | 0.0 | 2.0 | 0.00 | 0.01 | 0.01 | 89 | 1008.9 |
| 20260504033008 | 31 | 151 | 1.0 | 2.0 | 0.00 | 0.01 | 0.01 | 90 | 1008.9 |
| 20260504032503 | 31 | 151 | 0.0 | 1.0 | 0.00 | 0.01 | 0.01 | 90 | 1008.8 |
| 20260504032005 | 31 | 151 | 0.0 | 1.0 | 0.00 | 0.01 | 0.01 | 90 | 1008.8 |
| 20260504031505 | 31 | 151 | 0.0 | 1.0 | 0.00 | 0.01 | 0.01 | 90 | 1008.7 |
| 20260504031003 | 31 | 151 | 0.0 | 1.0 | 0.00 | 0.01 | 0.01 | 89 | 1008.7 |
| 20260504030502 | 32 | 151 | 0.0 | 1.0 | 0.00 | 0.01 | 0.01 | 89 | 1008.7 |
| 20260504030004 | 32 | 151 | 0.0 | 1.0 | 0.00 | 0.01 | 0.01 | 89 | 1008.7 |
| 20260504025504 | 32 | 151 | 0.0 | 1.0 | 0.00 | 0.01 | 0.01 | 89 | 1008.7 |
| 20260504025004 | 32 | 151 | 0.0 | 1.0 | 0.00 | 0.01 | 0.01 | 89 | 1008.7 |
| 20260504024511 | 32 | 151 | 0.0 | 1.0 | 0.00 | 0.01 | 0.01 | 89 | 1008.7 |
| 20260504024001 | 32 | 151 | 0.0 | 1.0 | 0.00 | 0.01 | 0.01 | 88 | 1008.7 |
| 20260504023505 | 32 | 151 | 0.0 | 0.0 | 0.00 | 0.01 | 0.01 | 88 | 1008.8 |
| 20260504023016 | 33 | 151 | 0.0 | 0.0 | 0.00 | 0.01 | 0.01 | 88 | 1008.8 |
| 20260504022502 | 33 | 151 | 0.0 | 1.0 | 0.00 | 0.01 | 0.01 | 87 | 1008.8 |
| 20260504022004 | 33 | 151 | 0.0 | 1.0 | 0.00 | 0.01 | 0.01 | 87 | 1008.8 |
| 20260504021511 | 33 | 151 | 0.0 | 1.0 | 0.00 | 0.01 | 0.01 | 87 | 1008.8 |
| 20260504021006 | 33 | 151 | 0.0 | 0.0 | 0.00 | 0.01 | 0.01 | 86 | 1008.8 |
| 20260504020503 | 34 | 151 | 0.0 | 0.0 | 0.00 | 0.01 | 0.01 | 86 | 1008.7 |
| 20260504020007 | 34 | 151 | 0.0 | 1.0 | 0.00 | 0.01 | 0.01 | 86 | 1008.7 |
| 20260504015503 | 34 | 151 | 0.0 | 2.0 | 0.00 | 0.01 | 0.01 | 85 | 1008.6 |
| 20260504015004 | 35 | 151 | 0.0 | 2.0 | 0.00 | 0.01 | 0.01 | 84 | 1008.6 |
| 20260504014508 | 35 | 151 | 0.0 | 1.0 | 0.00 | 0.01 | 0.01 | 83 | 1008.5 |
| 20260504014002 | 35 | 151 | 0.0 | 1.0 | 0.00 | 0.01 | 0.01 | 83 | 1008.5 |
| 20260504013508 | 36 | 151 | 0.0 | 1.0 | 0.00 | 0.01 | 0.01 | 82 | 1008.5 |
| 20260504013004 | 36 | 151 | 0.0 | 1.0 | 0.00 | 0.01 | 0.01 | 81 | 1008.4 |
| 20260504012508 | 36 | 151 | 0.0 | 1.0 | 0.00 | 0.01 | 0.01 | 80 | 1008.4 |
| 20260504012011 | 37 | 151 | 0.0 | 0.0 | 0.00 | 0.01 | 0.01 | 80 | 1008.5 |
| 20260504011518 | 37 | 151 | 0.0 | 0.0 | 0.00 | 0.01 | 0.01 | 80 | 1008.3 |
| 20260504011004 | 37 | 151 | 0.0 | 0.0 | 0.00 | 0.01 | 0.01 | 80 | 1008.3 |
| 20260504010505 | 38 | 151 | 0.0 | 0.0 | 0.00 | 0.01 | 0.01 | 79 | 1008.4 |
| 20260504010018 | 38 | 151 | 0.0 | 0.0 | 0.00 | 0.01 | 0.01 | 79 | 1008.4 |
| 20260504005507 | 39 | 151 | 0.0 | 0.0 | 0.00 | 0.01 | 0.01 | 79 | 1008.4 |
| 20260504005003 | 39 | 151 | 0.0 | 0.0 | 0.00 | 0.01 | 0.01 | 78 | 1008.3 |
| 20260504004503 | 39 | 151 | 0.0 | 0.0 | 0.00 | 0.01 | 0.01 | 76 | 1008.2 |
| 20260504004006 | 40 | 151 | 0.0 | 1.0 | 0.00 | 0.01 | 0.01 | 74 | 1008.1 |
| 20260504003506 | 40 | 151 | 0.0 | 1.0 | 0.00 | 0.01 | 0.01 | 73 | 1008.0 |
| 20260504003008 | 41 | 151 | 0.0 | 1.0 | 0.00 | 0.01 | 0.01 | 71 | 1008.0 |
| 20260504002503 | 41 | 151 | 0.0 | 1.0 | 0.00 | 0.01 | 0.01 | 70 | 1007.9 |
| 20260504002006 | 42 | 151 | 0.0 | 1.0 | 0.00 | 0.01 | 0.01 | 68 | 1007.8 |
| 20260504001506 | 43 | 151 | 0.0 | 1.0 | 0.00 | 0.02 | 0.01 | 66 | 1007.7 |
| 20260504001003 | 43 | 151 | 0.0 | 1.0 | 0.00 | 0.02 | 0.01 | 64 | 1007.6 |
| 20260504000507 | 44 | 151 | 0.0 | 1.0 | 0.00 | 0.03 | 0.01 | 62 | 1007.5 |
| 20260504000017 | 45 | 151 | 0.0 | 4.0 | 0.00 | 0.04 | 0.01 | 62 | 1007.5 |
| 20260503235506 | 45 | 151 | 0.0 | 4.0 | 0.00 | 0.06 | 0.01 | 60 | 1007.4 |
| 20260503235004 | 45 | 231 | 0.0 | 8.0 | 0.00 | 0.08 | 0.01 | 60 | 1007.4 |
| 20260503234534 | 45 | 290 | 1.0 | 8.0 | 0.00 | 0.09 | 0.01 | 58 | 1007.4 |
| 20260503234004 | 46 | 271 | 0.0 | 6.0 | 0.00 | 0.09 | 0.01 | 57 | 1007.4 |
| 20260503233505 | 46 | 223 | 2.0 | 6.0 | 0.00 | 0.10 | 0.01 | 56 | 1007.3 |
| 20260503233007 | 46 | 275 | 0.0 | 4.0 | 0.00 | 0.10 | 0.01 | 59 | 1007.2 |
| 20260503232504 | 47 | 292 | 0.0 | 5.0 | 0.00 | 0.10 | 0.01 | 58 | 1007.1 |
| 20260503232004 | 47 | 292 | 0.0 | 5.0 | 0.00 | 0.10 | 0.01 | 55 | 1007.1 |
| 20260503231512 | 47 | 291 | 1.0 | 5.0 | 0.00 | 0.10 | 0.01 | 54 | 1007.1 |
| 20260503231008 | 47 | 217 | 1.0 | 5.0 | 0.00 | 0.10 | 0.01 | 52 | 1007.0 |
| 20260503230506 | 47 | 226 | 2.0 | 6.0 | 0.00 | 0.10 | 0.01 | 51 | 1007.0 |
| 20260503230013 | 48 | 278 | 1.0 | 8.0 | 0.00 | 0.11 | 0.01 | 50 | 1007.0 |
| 20260503225507 | 48 | 272 | 3.0 | 8.0 | 0.00 | 0.11 | 0.01 | 51 | 1006.8 |
| 20260503225006 | 48 | 239 | 2.0 | 13.0 | 0.00 | 0.11 | 0.01 | 49 | 1006.7 |
| 20260503224507 | 48 | 278 | 2.0 | 13.0 | 0.00 | 0.12 | 0.01 | 51 | 1006.7 |
| 20260503224004 | 48 | 265 | 3.0 | 11.0 | 0.00 | 0.12 | 0.01 | 53 | 1006.7 |
| 20260503223509 | 49 | 228 | 1.0 | 11.0 | 0.00 | 0.13 | 0.01 | 49 | 1006.6 |
| 20260503223021 | 49 | 277 | 2.0 | 4.0 | 0.00 | 0.13 | 0.01 | 53 | 1006.6 |
| 20260503222505 | 49 | 311 | 1.0 | 6.0 | 0.00 | 0.14 | 0.01 | 54 | 1006.5 |
| 20260503222010 | 49 | 298 | 2.0 | 6.0 | 0.00 | 0.14 | 0.01 | 50 | 1006.5 |
| 20260503221523 | 49 | 248 | 1.0 | 5.0 | 0.00 | 0.14 | 0.01 | 53 | 1006.5 |
| 20260503221007 | 49 | 153 | 2.0 | 5.0 | 0.00 | 0.14 | 0.01 | 52 | 1006.5 |
| 20260503220505 | 48 | 230 | 2.0 | 5.0 | 0.00 | 0.14 | 0.01 | 53 | 1006.5 |
| 20260503220029 | 48 | 285 | 2.0 | 10.0 | 0.00 | 0.14 | 0.01 | 52 | 1006.4 |
| 20260503215503 | 48 | 300 | 3.0 | 10.0 | 0.00 | 0.14 | 0.01 | 53 | 1006.4 |
| 20260503215004 | 48 | 222 | 5.0 | 10.0 | 0.00 | 0.14 | 0.01 | 51 | 1006.3 |
| 20260503214517 | 49 | 265 | 1.0 | 7.0 | 0.00 | 0.14 | 0.01 | 52 | 1006.3 |
| 20260503214008 | 49 | 261 | 3.0 | 8.0 | 0.00 | 0.14 | 0.01 | 49 | 1006.2 |
| 20260503213509 | 50 | 57 | 2.0 | 13.0 | 0.00 | 0.14 | 0.01 | 52 | 1006.3 |
| 20260503213014 | 50 | 235 | 3.0 | 13.0 | 0.00 | 0.14 | 0.01 | 48 | 1006.2 |
| 20260503212507 | 49 | 213 | 2.0 | 11.0 | 0.00 | 0.14 | 0.01 | 49 | 1006.2 |